Time;durP1;ratioP1;P1;durP2;ratioP2;P2;SDS_P1;SDS_P2;PMS_P1;PMS_P2;Temp;Humidity;BMP_temperature;BMP_pressure;BME280_temperature;BME280_humidity;BME280_pressure;Samples;Min_cycle;Max_cycle;Signal;HPM_P1;HPM_P2
2023/10/12 11:13:40;;;;;;;0.10;0.10;;;;;;;20.96;38.21;101877.44;5059253;27;1801351;-84
2023/10/12 11:16:21;;;;;;;0.10;0.10;;;;;;;21.18;38.00;101867.03;5108036;28;20051;-95
2023/10/12 11:18:47;;;;;;;0.10;0.10;;;;;;;21.44;37.52;101873.84;5097494;28;20473;-85
2023/10/12 11:21:14;;;;;;;0.10;0.10;;;;;;;21.68;37.20;101854.50;5086287;28;20346;-94
2023/10/12 11:23:44;;;;;;;0.10;0.10;;;;;;;21.96;36.38;101861.13;5106718;28;20034;-90
2023/10/12 11:26:17;;;;;;;0.10;0.10;;;;;;;22.05;36.42;101850.72;5090133;28;20937;-91
2023/10/12 11:28:46;;;;;;;0.10;0.10;;;;;;;22.23;35.75;101845.84;5091111;28;20016;-88
2023/10/12 11:31:20;;;;;;;0.10;0.10;;;;;;;22.14;36.33;101832.53;5090097;28;20027;-91
2023/10/12 11:33:53;;;;;;;0.20;0.20;;;;;;;22.25;35.77;101843.91;5106152;28;20023;-89
2023/10/12 11:36:25;;;;;;;0.10;0.10;;;;;;;22.24;35.72;101834.34;5089081;28;20361;-84
2023/10/12 11:39:00;;;;;;;0.10;0.10;;;;;;;22.22;36.08;101822.22;5097598;28;20366;-88
2023/10/12 11:41:27;;;;;;;0.10;0.10;;;;;;;22.18;36.03;101826.06;5089012;28;20035;-90
2023/10/12 11:43:53;;;;;;;0.10;0.10;;;;;;;22.09;35.87;101813.59;5071060;28;20078;-90
2023/10/12 11:46:18;;;;;;;0.10;0.10;;;;;;;22.13;35.84;101817.69;5102754;28;20020;-88
2023/10/12 11:48:44;;;;;;;0.10;0.10;;;;;;;22.05;36.46;101808.56;5087896;28;20054;-92
2023/10/12 11:51:13;;;;;;;0.10;0.10;;;;;;;22.20;36.35;101811.78;5108242;28;20034;-95
2023/10/12 11:53:40;;;;;;;0.10;0.10;;;;;;;22.30;36.42;101815.38;5075863;28;20020;-91
2023/10/12 11:56:24;;;;;;;0.10;0.10;;;;;;;22.29;36.00;101804.97;5097596;28;20032;-90
2023/10/12 11:58:54;;;;;;;0.10;0.10;;;;;;;22.18;36.00;101791.81;5088703;28;20049;-86
2023/10/12 12:01:24;;;;;;;0.10;0.10;;;;;;;22.27;36.20;101793.72;5093715;28;20030;-92
2023/10/12 12:03:53;;;;;;;0.20;0.20;;;;;;;22.27;36.02;101801.63;5090990;28;20020;-88
2023/10/12 12:06:19;;;;;;;0.10;0.10;;;;;;;22.23;36.19;101789.66;5105779;28;20078;-87
2023/10/12 12:08:46;;;;;;;0.10;0.10;;;;;;;22.18;36.17;101768.09;5088581;28;20047;-84
2023/10/12 12:11:13;;;;;;;0.10;0.10;;;;;;;22.30;36.12;101775.00;5104973;28;20055;-96
2023/10/12 12:13:47;;;;;;;0.10;0.10;;;;;;;22.18;36.31;101753.09;5076269;28;20049;-90
2023/10/12 12:16:19;;;;;;;0.10;0.10;;;;;;;22.24;36.50;101768.44;5065005;28;20048;-88
2023/10/12 12:18:50;;;;;;;0.10;0.10;;;;;;;22.34;36.16;101773.81;5061280;28;20941;-95
2023/10/12 12:21:17;;;;;;;0.10;0.10;;;;;;;22.35;36.53;101764.09;5048546;28;20078;-88
2023/10/12 12:23:47;;;;;;;0.10;0.10;;;;;;;22.23;36.67;101747.47;5042939;28;20032;-89
2023/10/12 12:26:14;;;;;;;0.20;0.20;;;;;;;22.22;36.46;101737.88;5050627;28;20021;-90
2023/10/12 12:28:49;;;;;;;0.10;0.10;;;;;;;22.32;36.12;101754.66;5050808;28;20033;-88
2023/10/12 12:31:15;;;;;;;0.10;0.10;;;;;;;22.36;36.25;101748.16;5035697;28;20100;-94
2023/10/12 12:33:44;;;;;;;0.10;0.10;;;;;;;22.47;35.86;101747.28;5035370;28;20100;-86
2023/10/12 12:36:13;;;;;;;0.10;0.10;;;;;;;22.42;35.62;101734.50;5053610;28;20024;-87
2023/10/12 12:41:18;;;;;;;0.10;0.10;;;;;;;22.41;35.70;101743.31;5037094;28;20384;-90
2023/10/12 12:43:44;;;;;;;0.10;0.10;;;;;;;22.43;35.98;101745.88;5036644;28;20040;-91
2023/10/12 12:46:11;;;;;;;0.10;0.10;;;;;;;22.28;35.77;101721.56;5052137;28;20027;-91
2023/10/12 12:48:37;;;;;;;0.10;0.10;;;;;;;22.29;36.21;101728.50;5051959;28;20033;-90
2023/10/12 12:51:03;;;;;;;0.10;0.10;;;;;;;22.26;36.06;101715.59;5051665;28;20021;-94
2023/10/12 12:53:33;;;;;;;0.10;0.10;;;;;;;22.27;36.09;101704.09;5034195;28;20025;-85
2023/10/12 12:56:18;;;;;;;0.10;0.10;;;;;;;22.40;35.87;101720.56;5051917;28;20029;-92
2023/10/12 12:58:46;;;;;;;0.10;0.10;;;;;;;22.45;35.62;101718.41;5031527;28;20022;-90
2023/10/12 13:01:23;;;;;;;0.10;0.10;;;;;;;22.39;35.57;101708.34;5036522;28;20474;-90
2023/10/12 13:03:48;;;;;;;0.10;0.10;;;;;;;22.46;35.87;101712.16;5034356;28;20435;-87
2023/10/12 13:06:17;;;;;;;0.20;0.20;;;;;;;22.49;36.03;101701.34;5034462;28;20103;-86
2023/10/12 13:08:42;;;;;;;0.10;0.10;;;;;;;22.52;36.07;101706.41;5049728;28;20033;-88
2023/10/12 13:11:09;;;;;;;0.20;0.20;;;;;;;22.46;35.83;101682.31;5033794;28;20025;-87
2023/10/12 13:13:35;;;;;;;0.20;0.20;;;;;;;22.54;35.99;101695.72;5021905;28;20423;-93
2023/10/12 13:16:04;;;;;;;0.20;0.20;;;;;;;22.44;35.66;101684.25;5050728;28;20051;-88
2023/10/12 13:18:32;;;;;;;0.10;0.10;;;;;;;22.51;36.11;101685.41;5034224;28;20033;-93
2023/10/12 13:20:59;;;;;;;0.10;0.10;;;;;;;22.52;36.20;101676.56;5050394;28;20490;-89
2023/10/12 13:23:24;;;;;;;0.10;0.10;;;;;;;22.71;35.76;101692.50;5033961;28;20106;-89
2023/10/12 13:25:50;;;;;;;0.10;0.10;;;;;;;22.63;35.36;101686.22;5051008;28;20533;-87
2023/10/12 13:28:16;;;;;;;0.10;0.10;;;;;;;22.67;35.49;101680.53;5051503;28;20029;-91
2023/10/12 13:30:42;;;;;;;0.10;0.10;;;;;;;22.82;35.51;101681.91;5034466;28;20103;-92
2023/10/12 13:33:11;;;;;;;0.10;0.10;;;;;;;22.89;35.24;101680.44;5049644;28;20475;-89
2023/10/12 13:38:07;;;;;;;0.10;0.10;;;;;;;22.88;34.93;101673.50;5051502;28;20130;-93
2023/10/12 13:40:35;;;;;;;0.10;0.10;;;;;;;22.76;35.50;101653.41;5021477;28;20868;-94
2023/10/12 13:43:18;;;;;;;0.10;0.10;;;;;;;22.83;35.37;101665.13;5038526;28;20112;-88
2023/10/12 13:45:47;;;;;;;0.10;0.10;;;;;;;22.81;35.27;101653.00;5036128;28;20881;-91
2023/10/12 13:48:25;;;;;;;0.10;0.10;;;;;;;22.84;35.55;101656.25;5035317;28;20074;-88
2023/10/12 13:51:04;;;;;;;0.20;0.20;;;;;;;22.86;35.69;101648.22;5018813;28;20072;-89
2023/10/12 13:53:32;;;;;;;0.10;0.10;;;;;;;22.99;35.21;101648.00;5052540;28;20396;-90
2023/10/12 13:55:57;;;;;;;0.10;0.10;;;;;;;22.93;35.13;101641.47;5047108;28;20041;-93
2023/10/12 13:58:26;;;;;;;0.10;0.10;;;;;;;22.94;35.13;101639.66;5051215;28;20056;-90
2023/10/12 14:00:53;;;;;;;0.10;0.10;;;;;;;22.95;35.65;101634.25;5035912;28;20033;-94
2023/10/12 14:03:27;;;;;;;0.20;0.20;;;;;;;23.02;35.90;101635.41;5037442;28;20033;-92
2023/10/12 14:05:56;;;;;;;0.10;0.10;;;;;;;22.76;35.59;101605.09;5049322;28;20025;-89
2023/10/12 14:08:21;;;;;;;0.10;0.10;;;;;;;23.03;35.44;101629.16;5049115;28;20052;-93
2023/10/12 14:10:47;;;;;;;0.10;0.10;;;;;;;22.97;35.19;101623.56;5033348;28;20029;-92
2023/10/12 14:13:13;;;;;;;0.10;0.10;;;;;;;23.01;34.98;101620.53;5034878;28;20499;-91
2023/10/12 14:15:43;;;;;;;0.20;0.20;;;;;;;23.08;35.02;101621.66;5050769;28;20083;-95
2023/10/12 14:18:11;;;;;;;0.20;0.20;;;;;;;23.35;34.65;101617.59;5034615;28;20025;-93
2023/10/12 14:20:38;;;;;;;0.20;0.20;;;;;;;23.63;34.45;101616.88;5031689;28;20025;-86
2023/10/12 14:23:07;;;;;;;0.20;0.20;;;;;;;23.92;34.02;101624.03;5030347;28;20074;-88
2023/10/12 14:25:50;;;;;;;0.20;0.20;;;;;;;24.18;32.79;101598.69;5031261;28;20072;-88
2023/10/12 14:28:20;;;;;;;0.20;0.20;;;;;;;24.17;33.56;101615.53;5047578;28;20067;-86
2023/10/12 14:30:50;;;;;;;0.10;0.10;;;;;;;24.10;33.79;101624.19;5015254;28;20029;-87
2023/10/12 14:33:17;;;;;;;0.10;0.10;;;;;;;23.73;34.13;101623.03;5031016;28;20092;-87
2023/10/12 14:35:42;;;;;;;0.10;0.10;;;;;;;23.62;34.34;101617.84;5047346;28;20428;-86
2023/10/12 14:38:12;;;;;;;0.10;0.10;;;;;;;23.49;34.40;101606.66;5031062;28;20058;-86
2023/10/12 14:40:40;;;;;;;0.20;0.20;;;;;;;23.49;34.66;101614.56;5031785;28;20506;-87
2023/10/12 14:43:06;;;;;;;0.17;0.17;;;;;;;23.35;34.51;101605.25;5047436;28;20067;-87
2023/10/12 14:45:45;;;;;;;0.20;0.20;;;;;;;23.35;34.70;101604.41;5030217;28;20510;-87
2023/10/12 14:48:13;;;;;;;0.20;0.20;;;;;;;23.38;34.73;101617.31;5030757;28;20103;-87
2023/10/12 14:50:45;;;;;;;0.20;0.20;;;;;;;23.32;34.58;101607.31;5030886;28;20104;-87
2023/10/12 14:53:20;;;;;;;0.13;0.13;;;;;;;23.37;34.80;101615.66;5030881;28;20573;-86
2023/10/12 14:55:52;;;;;;;0.20;0.20;;;;;;;23.48;34.71;101613.75;5033163;28;20025;-88
2023/10/12 14:58:19;;;;;;;0.10;0.10;;;;;;;23.47;34.86;101614.72;5032251;28;20201;-87
2023/10/12 15:00:44;;;;;;;0.20;0.20;;;;;;;23.36;35.17;101608.72;5049103;28;20040;-86
2023/10/12 15:03:21;;;;;;;0.10;0.10;;;;;;;23.23;35.32;101618.69;5032667;28;20563;-87
2023/10/12 15:05:53;;;;;;;0.10;0.10;;;;;;;23.16;35.57;101608.63;5034733;28;20036;-87
2023/10/12 15:08:23;;;;;;;0.10;0.10;;;;;;;22.97;36.21;101595.34;5033628;28;20024;-86
2023/10/12 15:10:49;;;;;;;0.10;0.10;;;;;;;22.99;36.15;101616.34;5016222;28;20025;-86
2023/10/12 15:13:16;;;;;;;0.10;0.10;;;;;;;22.77;36.39;101601.47;5032184;28;20537;-87
2023/10/12 15:15:45;;;;;;;0.10;0.10;;;;;;;22.59;37.67;101612.59;5032482;28;20057;-86
2023/10/12 15:18:17;;;;;;;0.20;0.20;;;;;;;22.35;37.94;101611.19;5049158;28;20035;-86
2023/10/12 15:20:48;;;;;;;0.17;0.17;;;;;;;22.23;38.58;101608.63;5033468;28;20033;-86
2023/10/12 15:23:14;;;;;;;0.10;0.10;;;;;;;22.21;38.52;101607.06;5048973;28;20559;-86
2023/10/12 15:25:40;;;;;;;0.20;0.20;;;;;;;22.14;38.73;101605.91;5049063;28;20490;-87
2023/10/12 15:28:12;;;;;;;0.10;0.10;;;;;;;21.94;38.80;101592.53;5048977;28;20035;-87
2023/10/12 15:30:44;;;;;;;0.10;0.10;;;;;;;21.91;39.65;101608.56;5033905;28;20033;-87
2023/10/12 15:33:10;;;;;;;0.17;0.17;;;;;;;21.74;40.11;101602.06;5049195;28;20044;-86
2023/10/12 15:35:35;;;;;;;0.10;0.10;;;;;;;21.67;40.45;101607.94;5032582;28;20029;-87
2023/10/12 15:38:02;;;;;;;0.10;0.10;;;;;;;21.68;40.77;101617.50;5049832;28;20025;-87
2023/10/12 15:40:27;;;;;;;0.10;0.10;;;;;;;21.63;40.65;101617.88;5050515;28;20025;-86
2023/10/12 15:42:54;;;;;;;0.10;0.10;;;;;;;21.55;40.85;101615.00;5031922;28;20487;-86
2023/10/12 15:45:20;;;;;;;0.10;0.10;;;;;;;21.34;41.56;101614.09;5016037;28;20165;-87
2023/10/12 15:47:46;;;;;;;0.20;0.20;;;;;;;21.19;42.59;101623.97;5032327;28;20086;-87
2023/10/12 15:50:14;;;;;;;0.10;0.10;;;;;;;21.01;42.97;101623.59;5048828;28;20487;-86
2023/10/12 15:52:43;;;;;;;0.10;0.10;;;;;;;20.74;44.31;101608.13;5032513;28;20040;-87
2023/10/12 15:55:09;;;;;;;0.15;0.15;;;;;;;20.74;44.86;101626.53;5032720;28;20021;-87
2023/10/12 15:57:35;;;;;;;0.10;0.10;;;;;;;20.60;45.07;101619.69;5032006;28;20101;-86
2023/10/12 16:00:00;;;;;;;0.10;0.10;;;;;;;20.57;45.23;101633.09;5035078;28;20487;-86
2023/10/12 16:02:27;;;;;;;0.13;0.13;;;;;;;20.46;45.97;101619.09;5036012;28;20404;-87
2023/10/12 16:04:53;;;;;;;0.15;0.15;;;;;;;20.38;46.21;101619.63;5036139;28;20033;-87
2023/10/12 16:07:19;;;;;;;0.10;0.10;;;;;;;20.20;46.67;101600.78;5035985;28;20047;-86
2023/10/12 16:09:49;;;;;;;0.10;0.10;;;;;;;20.25;46.81;101619.66;5035762;28;20044;-86
2023/10/12 16:12:19;;;;;;;0.10;0.10;;;;;;;20.13;47.02;101604.81;5051738;28;20091;-86
2023/10/12 16:14:50;;;;;;;0.10;0.10;;;;;;;20.18;47.00;101622.88;5035915;28;20115;-87
2023/10/12 16:17:21;;;;;;;0.10;0.10;;;;;;;20.07;47.02;101609.69;5036601;28;20029;-86
2023/10/12 16:19:49;;;;;;;0.10;0.10;;;;;;;19.97;47.94;101627.91;5036215;28;20082;-87
2023/10/12 16:22:16;;;;;;;0.20;0.20;;;;;;;19.90;48.45;101624.03;5036031;28;20032;-87
2023/10/12 16:24:42;;;;;;;0.10;0.10;;;;;;;19.83;48.70;101612.31;5035618;28;20083;-87
2023/10/12 16:27:08;;;;;;;0.10;0.10;;;;;;;19.74;48.92;101621.66;5051578;28;20449;-86
2023/10/12 16:29:34;;;;;;;0.10;0.10;;;;;;;19.75;49.43;101632.06;5035299;28;20079;-86
2023/10/12 16:31:59;;;;;;;0.10;0.10;;;;;;;19.70;48.92;101631.56;5035061;28;20521;-86
2023/10/12 16:34:26;;;;;;;0.10;0.10;;;;;;;19.64;48.69;101634.63;5052000;28;20029;-86
2023/10/12 16:36:56;;;;;;;0.10;0.10;;;;;;;19.66;48.64;101645.84;5035825;28;20112;-86
2023/10/12 16:39:25;;;;;;;0.20;0.20;;;;;;;19.64;48.44;101637.25;5036256;28;20529;-87
2023/10/12 16:41:52;;;;;;;0.10;0.10;;;;;;;19.51;49.18;101639.03;5051082;28;20098;-87
2023/10/12 16:44:18;;;;;;;0.20;0.20;;;;;;;19.46;48.90;101646.38;5035459;28;20033;-87
2023/10/12 16:46:43;;;;;;;0.10;0.10;;;;;;;19.39;48.97;101639.91;5051718;28;20033;-87
2023/10/12 16:49:11;;;;;;;0.10;0.10;;;;;;;19.27;49.85;101630.25;5052036;28;20047;-86
2023/10/12 16:51:36;;;;;;;0.20;0.20;;;;;;;19.26;49.80;101642.53;5035068;28;20028;-86
2023/10/12 16:54:03;;;;;;;0.10;0.10;;;;;;;19.22;50.47;101643.69;5034951;28;20051;-87
2023/10/12 16:56:32;;;;;;;0.13;0.13;;;;;;;19.18;51.05;101634.38;5034779;28;20039;-86
2023/10/12 16:58:57;;;;;;;0.20;0.20;;;;;;;19.13;51.21;101626.78;5051442;28;20080;-86
2023/10/12 17:01:23;;;;;;;0.10;0.10;;;;;;;19.07;51.92;101629.00;5051547;28;20565;-87
2023/10/12 17:03:49;;;;;;;0.10;0.10;;;;;;;19.01;51.41;101630.28;5035155;28;20091;-86
2023/10/12 17:06:16;;;;;;;0.20;0.20;;;;;;;18.95;51.63;101638.53;5034828;28;20028;-86
2023/10/12 17:08:43;;;;;;;0.10;0.10;;;;;;;18.89;51.89;101638.97;5051308;28;20407;-87
2023/10/12 17:11:09;;;;;;;0.20;0.20;;;;;;;18.74;53.07;101638.22;5034448;28;20090;-86
2023/10/12 17:13:34;;;;;;;0.20;0.20;;;;;;;18.68;53.08;101640.41;5034299;28;20049;-86
2023/10/12 17:16:01;;;;;;;0.10;0.10;;;;;;;18.62;53.08;101645.09;5034538;28;20029;-86
2023/10/12 17:18:26;;;;;;;0.10;0.10;;;;;;;18.67;53.29;101657.06;5034844;28;20025;-87
2023/10/12 17:20:52;;;;;;;0.10;0.10;;;;;;;18.58;53.43;101638.38;5050828;28;20043;-86
2023/10/12 17:23:17;;;;;;;0.10;0.10;;;;;;;18.56;53.92;101635.00;5034543;28;20028;-87
2023/10/12 17:25:44;;;;;;;0.10;0.10;;;;;;;18.54;53.99;101651.78;5050520;28;20055;-86
2023/10/12 17:28:11;;;;;;;0.13;0.13;;;;;;;18.48;53.86;101650.38;5034524;28;20028;-86
2023/10/12 17:30:37;;;;;;;0.10;0.10;;;;;;;18.42;54.32;101647.34;5034273;28;20060;-86
2023/10/12 17:33:03;;;;;;;0.10;0.10;;;;;;;18.29;54.75;101653.41;5050876;28;20116;-86
2023/10/12 17:35:28;;;;;;;0.10;0.10;;;;;;;18.11;55.44;101640.66;5034576;28;20033;-86
2023/10/12 17:37:55;;;;;;;0.10;0.10;;;;;;;18.19;54.94;101648.81;5017593;28;20029;-87
2023/10/12 17:40:23;;;;;;;0.10;0.10;;;;;;;18.02;54.25;101636.84;5034061;28;20033;-87
2023/10/12 17:42:49;;;;;;;0.10;0.10;;;;;;;17.88;55.18;101637.69;5050519;28;20053;-86
2023/10/12 17:45:15;;;;;;;0.10;0.10;;;;;;;17.98;55.08;101641.41;5050656;28;20047;-86
2023/10/12 17:47:40;;;;;;;0.10;0.10;;;;;;;17.87;54.79;101636.03;5034096;28;20376;-86
2023/10/12 17:50:15;;;;;;;0.10;0.10;;;;;;;17.74;55.11;101640.38;5033907;28;20029;-86
2023/10/12 17:52:45;;;;;;;0.20;0.20;;;;;;;17.67;54.53;101639.88;5035420;28;20430;-87
2023/10/12 17:55:11;;;;;;;0.10;0.10;;;;;;;17.66;54.20;101632.97;5033678;28;20415;-86
2023/10/12 17:57:37;;;;;;;0.10;0.10;;;;;;;17.57;53.71;101632.69;5033879;28;20021;-86
2023/10/12 18:00:09;;;;;;;0.10;0.10;;;;;;;17.48;53.81;101636.72;5033612;28;20032;-86
2023/10/12 18:02:35;;;;;;;0.20;0.20;;;;;;;17.37;54.06;101633.94;5050398;28;20383;-86
2023/10/12 18:05:01;;;;;;;0.10;0.10;;;;;;;17.24;54.54;101631.22;5033706;28;20494;-86
2023/10/12 18:07:27;;;;;;;0.10;0.10;;;;;;;17.26;54.28;101633.75;5033571;28;20044;-86
2023/10/12 18:09:52;;;;;;;0.10;0.10;;;;;;;17.32;54.59;101634.22;5033472;28;20033;-86
2023/10/12 18:12:18;;;;;;;0.10;0.10;;;;;;;17.19;54.87;101620.19;5049682;28;20430;-87
2023/10/12 18:14:43;;;;;;;0.10;0.10;;;;;;;17.31;54.95;101643.00;5050019;28;20025;-86
2023/10/12 18:17:11;;;;;;;0.10;0.10;;;;;;;17.20;54.04;101627.09;5050131;28;20490;-86
2023/10/12 18:19:37;;;;;;;0.10;0.10;;;;;;;17.19;53.03;101639.34;5050344;28;20032;-87
2023/10/12 18:22:03;;;;;;;0.10;0.10;;;;;;;17.13;52.41;101638.88;5049307;28;20037;-86
2023/10/12 18:24:29;;;;;;;0.10;0.10;;;;;;;17.15;52.28;101645.69;5049744;28;20029;-86
2023/10/12 18:26:55;;;;;;;0.10;0.10;;;;;;;17.17;51.98;101650.81;5033773;28;20483;-86
2023/10/12 18:29:21;;;;;;;0.10;0.10;;;;;;;17.07;52.18;101657.53;5049740;28;20063;-86
2023/10/12 18:31:49;;;;;;;0.10;0.10;;;;;;;16.95;52.49;101651.28;5032805;28;20052;-86
2023/10/12 18:34:15;;;;;;;0.10;0.10;;;;;;;17.01;52.48;101653.53;5017417;28;20040;-86
2023/10/12 18:36:41;;;;;;;0.10;0.10;;;;;;;16.91;52.63;101642.78;5016613;28;20032;-86
2023/10/12 18:39:07;;;;;;;0.10;0.10;;;;;;;16.99;52.58;101655.38;5049588;28;20063;-86
2023/10/12 18:41:32;;;;;;;0.10;0.10;;;;;;;16.85;52.62;101632.69;5032900;28;20510;-86
2023/10/12 18:43:58;;;;;;;0.10;0.10;;;;;;;16.90;52.73;101656.75;5032995;28;20058;-86
2023/10/12 18:46:24;;;;;;;0.10;0.10;;;;;;;16.77;53.26;101662.81;5049541;28;20483;-86
2023/10/12 18:48:52;;;;;;;0.10;0.10;;;;;;;16.71;53.41;101658.75;5033050;28;20134;-86
2023/10/12 18:51:20;;;;;;;0.10;0.10;;;;;;;16.71;53.53;101663.16;5016475;28;20056;-86
2023/10/12 18:53:48;;;;;;;0.10;0.10;;;;;;;16.61;53.84;101657.59;5033503;28;20029;-88
2023/10/12 18:56:14;;;;;;;0.10;0.10;;;;;;;16.60;54.01;101656.75;5033366;28;20027;-86
2023/10/12 18:58:41;;;;;;;0.20;0.20;;;;;;;16.62;54.15;101664.53;5032409;28;20024;-86
2023/10/12 19:01:08;;;;;;;0.10;0.10;;;;;;;16.52;53.91;101642.47;5050366;28;20056;-86
2023/10/12 19:03:35;;;;;;;0.10;0.10;;;;;;;16.55;54.05;101658.81;5049122;28;20106;-86
2023/10/12 19:06:01;;;;;;;0.15;0.15;;;;;;;16.52;54.36;101669.44;5032329;28;20095;-86
2023/10/12 19:08:27;;;;;;;0.10;0.10;;;;;;;16.42;54.52;101656.97;5032705;28;20028;-87
2023/10/12 19:10:52;;;;;;;0.10;0.10;;;;;;;16.38;55.04;101669.34;5032510;28;20079;-87
2023/10/12 19:13:18;;;;;;;0.10;0.10;;;;;;;16.29;54.85;101657.66;5032365;28;20114;-86
2023/10/12 19:15:45;;;;;;;0.10;0.10;;;;;;;16.31;54.80;101670.63;5049106;28;20525;-87
2023/10/12 19:18:15;;;;;;;0.10;0.10;;;;;;;16.25;55.01;101678.81;5032741;28;20025;-87
2023/10/12 19:20:44;;;;;;;0.10;0.10;;;;;;;16.19;55.79;101673.94;5049036;28;20020;-86
2023/10/12 19:23:10;;;;;;;0.10;0.10;;;;;;;16.14;55.76;101684.66;5049287;28;20029;-87
2023/10/12 19:25:35;;;;;;;0.10;0.10;;;;;;;16.09;55.70;101678.81;5032579;28;20033;-86
2023/10/12 19:28:02;;;;;;;0.10;0.10;;;;;;;16.13;55.43;101696.00;5032709;28;20479;-87
2023/10/12 19:30:28;;;;;;;0.10;0.10;;;;;;;15.99;56.23;101693.31;5032252;28;20475;-87
2023/10/12 19:32:55;;;;;;;0.10;0.10;;;;;;;15.89;56.08;101669.47;5032366;28;20033;-86
2023/10/12 19:35:21;;;;;;;0.20;0.20;;;;;;;15.97;55.87;101689.94;5019583;28;20025;-86
2023/10/12 19:37:46;;;;;;;0.10;0.10;;;;;;;15.88;55.94;101680.00;5036414;28;20127;-86
2023/10/12 19:40:18;;;;;;;0.10;0.10;;;;;;;15.81;55.81;101669.03;5036350;28;20519;-86
2023/10/12 19:42:54;;;;;;;0.10;0.10;;;;;;;15.82;55.99;101688.16;5037191;28;20116;-86
2023/10/12 19:45:23;;;;;;;0.10;0.10;;;;;;;15.83;56.16;101695.03;5038531;28;20033;-87
2023/10/12 19:47:49;;;;;;;0.10;0.10;;;;;;;15.86;56.02;101692.28;5036947;28;20407;-86
2023/10/12 19:50:14;;;;;;;0.10;0.10;;;;;;;15.72;56.34;101693.84;5035857;28;20043;-87
2023/10/12 19:52:40;;;;;;;0.10;0.10;;;;;;;15.41;56.69;101652.03;5052737;28;20544;-86
2023/10/12 19:55:05;;;;;;;0.10;0.10;;;;;;;15.63;56.67;101694.38;5036223;28;20036;-86
2023/10/12 19:57:35;;;;;;;0.10;0.10;;;;;;;15.61;57.03;101692.75;5036094;28;20031;-86
2023/10/12 20:02:47;;;;;;;0.10;0.10;;;;;;;15.46;57.19;101681.34;5038868;28;20039;-87
2023/10/12 20:05:12;;;;;;;0.10;0.10;;;;;;;15.28;57.18;101656.22;5035888;28;20517;-86
2023/10/12 20:07:38;;;;;;;0.17;0.17;;;;;;;15.45;56.91;101696.16;5035896;28;20037;-86
2023/10/12 20:10:05;;;;;;;0.10;0.10;;;;;;;15.25;57.07;101677.25;5035588;28;20033;-86
2023/10/12 20:12:30;;;;;;;0.10;0.10;;;;;;;15.07;57.04;101648.59;5052173;28;20110;-86
2023/10/12 20:14:57;;;;;;;0.10;0.10;;;;;;;15.24;57.30;101678.16;5052339;28;20460;-86
2023/10/12 20:17:22;;;;;;;0.10;0.10;;;;;;;15.25;57.14;101693.72;5035872;28;20033;-85
2023/10/12 20:19:50;;;;;;;0.13;0.13;;;;;;;15.04;57.64;101687.81;5035174;28;20025;-86
2023/10/12 20:22:15;;;;;;;0.10;0.10;;;;;;;15.06;57.88;101688.63;5036178;28;20063;-86
2023/10/12 20:24:42;;;;;;;0.10;0.10;;;;;;;14.94;57.93;101668.38;5035637;28;20076;-87
2023/10/12 20:27:09;;;;;;;0.10;0.10;;;;;;;14.98;58.24;101677.72;5035687;28;20505;-86
2023/10/12 20:29:34;;;;;;;0.10;0.10;;;;;;;14.97;58.39;101681.25;5019161;28;20029;-87
2023/10/12 20:32:00;;;;;;;0.10;0.10;;;;;;;15.02;58.53;101681.84;5035294;28;20036;-86
2023/10/12 20:34:25;;;;;;;0.10;0.10;;;;;;;14.88;58.19;101674.75;5035125;28;20098;-86
2023/10/12 20:36:51;;;;;;;0.10;0.10;;;;;;;14.86;58.48;101667.94;5035728;28;20041;-86
2023/10/12 20:39:18;;;;;;;0.10;0.10;;;;;;;14.85;58.72;101676.69;5018876;28;20047;-86
2023/10/12 20:41:44;;;;;;;0.10;0.10;;;;;;;14.83;58.49;101673.28;5035756;28;20059;-86
2023/10/12 20:44:09;;;;;;;0.10;0.10;;;;;;;14.79;59.00;101677.81;5018261;28;20430;-86
2023/10/12 20:46:36;;;;;;;0.10;0.10;;;;;;;14.69;59.35;101673.13;5034920;28;20029;-86
2023/10/12 20:49:05;;;;;;;0.10;0.10;;;;;;;14.77;59.68;101686.63;5035272;28;20033;-86
2023/10/12 20:51:31;;;;;;;0.10;0.10;;;;;;;14.73;59.45;101672.06;5035667;28;20090;-86
2023/10/12 20:53:59;;;;;;;0.10;0.10;;;;;;;14.84;59.58;101682.78;5034996;28;20032;-86
2023/10/12 20:56:28;;;;;;;0.20;0.17;;;;;;;14.71;59.41;101671.28;5035464;28;20040;-86
2023/10/12 20:59:09;;;;;;;0.10;0.10;;;;;;;14.76;59.43;101677.97;5035618;28;20060;-86
2023/10/12 21:01:46;;;;;;;0.10;0.10;;;;;;;14.70;59.50;101672.22;5036905;28;20128;-86
2023/10/12 21:04:20;;;;;;;0.10;0.10;;;;;;;14.68;59.77;101676.66;5035046;28;20494;-86
2023/10/12 21:06:48;;;;;;;0.10;0.10;;;;;;;14.46;60.56;101656.03;5035818;28;20093;-86
2023/10/12 21:09:15;;;;;;;0.10;0.10;;;;;;;14.34;60.62;101652.22;5018867;28;20072;-86
2023/10/12 21:11:47;;;;;;;0.10;0.10;;;;;;;14.48;60.54;101659.41;5051249;28;20079;-86
2023/10/12 21:14:20;;;;;;;0.20;0.20;;;;;;;14.34;60.43;101641.81;5036494;28;20031;-86
2023/10/12 21:16:49;;;;;;;0.10;0.10;;;;;;;14.40;60.48;101651.94;5035557;28;20033;-86
2023/10/12 21:19:18;;;;;;;0.10;0.10;;;;;;;14.45;60.56;101649.97;5035069;28;20036;-87
2023/10/12 21:21:43;;;;;;;0.10;0.10;;;;;;;14.40;60.11;101644.13;5034827;28;20487;-87
2023/10/12 21:24:18;;;;;;;0.10;0.10;;;;;;;14.46;60.07;101653.44;5034447;28;20032;-87
2023/10/12 21:26:45;;;;;;;0.10;0.10;;;;;;;14.23;60.03;101628.47;5035818;28;20029;-86
2023/10/12 21:29:17;;;;;;;0.10;0.10;;;;;;;14.27;60.39;101633.47;5050828;28;20025;-86
2023/10/12 21:31:43;;;;;;;;;;;;;;;14.42;60.41;101651.84;5019806;28;20116;-86
2023/10/12 21:34:10;;;;;;;0.10;0.10;;;;;;;14.30;60.34;101640.28;5050779;28;20004;-87
2023/10/12 21:36:42;;;;;;;0.10;0.10;;;;;;;14.18;60.87;101628.72;5050931;28;20029;-86
2023/10/12 21:39:16;;;;;;;0.10;0.10;;;;;;;14.27;60.91;101650.84;5034929;28;20029;-86
2023/10/12 21:41:42;;;;;;;0.10;0.10;;;;;;;14.25;61.10;101642.25;5034688;28;20036;-86
2023/10/12 21:44:11;;;;;;;0.10;0.10;;;;;;;14.33;60.59;101656.59;5033966;28;20036;-87
2023/10/12 21:46:40;;;;;;;0.10;0.10;;;;;;;14.39;60.39;101655.47;5034357;28;20036;-86
2023/10/12 21:49:10;;;;;;;0.10;0.10;;;;;;;14.32;60.24;101646.25;5050974;28;20035;-87
2023/10/12 21:51:36;;;;;;;0.10;0.10;;;;;;;14.27;60.46;101653.44;5017727;28;20057;-86
2023/10/12 21:54:06;;;;;;;0.10;0.10;;;;;;;14.36;60.44;101655.63;5033905;28;20065;-86
2023/10/12 21:56:35;;;;;;;0.20;0.20;;;;;;;14.25;60.88;101652.66;5033947;28;20059;-86
2023/10/12 21:59:01;;;;;;;0.10;0.10;;;;;;;14.17;60.84;101636.59;5033862;28;20025;-86
2023/10/12 22:01:34;;;;;;;0.10;0.10;;;;;;;14.19;60.78;101642.56;5033360;28;20461;-86
2023/10/12 22:04:00;;;;;;;0.10;0.10;;;;;;;14.17;61.14;101660.00;5034735;28;20037;-86
2023/10/12 22:06:26;;;;;;;0.10;0.10;;;;;;;14.16;61.00;101650.50;5033969;28;20021;-86
2023/10/12 22:08:56;;;;;;;0.10;0.10;;;;;;;13.93;61.46;101618.59;5033549;28;20052;-86
2023/10/12 22:11:38;;;;;;;0.10;0.10;;;;;;;14.01;61.63;101637.31;5034353;28;20529;-86
2023/10/12 22:14:15;;;;;;;0.10;0.10;;;;;;;13.85;62.10;101606.88;5050217;28;20586;-86
2023/10/12 22:16:42;;;;;;;0.10;0.10;;;;;;;13.92;61.93;101623.88;5035222;28;20051;-87
2023/10/12 22:19:11;;;;;;;0.10;0.10;;;;;;;13.91;62.40;101623.03;5033617;28;20028;-86
2023/10/12 22:21:37;;;;;;;0.10;0.10;;;;;;;13.87;62.17;101626.72;5034318;28;20490;-86
2023/10/12 22:24:06;;;;;;;0.10;0.10;;;;;;;13.92;62.39;101640.34;5033279;28;20122;-87
2023/10/12 22:26:36;;;;;;;0.10;0.10;;;;;;;13.97;62.19;101643.59;5033394;28;20513;-86
2023/10/12 22:29:08;;;;;;;0.10;0.10;;;;;;;13.93;62.41;101642.03;5033784;28;20029;-86
2023/10/12 22:31:34;;;;;;;0.10;0.10;;;;;;;13.83;62.37;101635.56;5034411;28;20035;-86
2023/10/12 22:34:02;;;;;;;0.22;0.10;;;;;;;13.76;62.50;101640.22;5032899;28;20025;-86
2023/10/12 22:36:28;;;;;;;0.10;0.10;;;;;;;13.55;62.36;101606.53;5033423;28;20020;-87
2023/10/12 22:38:54;;;;;;;0.10;0.10;;;;;;;13.72;62.53;101648.22;5049611;28;20094;-87
2023/10/12 22:41:20;;;;;;;0.10;0.10;;;;;;;13.74;62.40;101654.19;5033197;28;20379;-86
2023/10/12 22:43:46;;;;;;;0.10;0.10;;;;;;;13.62;63.08;101646.94;5049126;28;20035;-86
2023/10/12 22:46:14;;;;;;;0.10;0.10;;;;;;;13.52;62.83;101649.13;5032997;28;20123;-86
2023/10/12 22:48:43;;;;;;;0.10;0.10;;;;;;;13.42;62.93;101642.66;5016497;28;20029;-86